sensor_id;sensor_type;location;lat;lon;timestamp;temperature;humidity
27759;DHT22;15148;48.972;12.794;2023-12-22T00:04:29;3.30;99.90
27759;DHT22;15148;48.972;12.794;2023-12-22T00:09:31;3.20;99.90
27759;DHT22;15148;48.972;12.794;2023-12-22T00:14:32;3.20;99.90
27759;DHT22;15148;48.972;12.794;2023-12-22T00:19:34;3.10;99.90
27759;DHT22;15148;48.972;12.794;2023-12-22T00:24:37;3.10;99.90
27759;DHT22;15148;48.972;12.794;2023-12-22T00:29:39;3.10;99.90
27759;DHT22;15148;48.972;12.794;2023-12-22T00:34:41;3.10;99.90
27759;DHT22;15148;48.972;12.794;2023-12-22T00:39:43;3.20;99.90
27759;DHT22;15148;48.972;12.794;2023-12-22T00:44:44;3.20;99.90
27759;DHT22;15148;48.972;12.794;2023-12-22T00:49:46;3.20;99.90
27759;DHT22;15148;48.972;12.794;2023-12-22T00:54:48;3.20;99.90
27759;DHT22;15148;48.972;12.794;2023-12-22T00:59:50;3.20;99.90
27759;DHT22;15148;48.972;12.794;2023-12-22T01:04:52;3.20;99.90
27759;DHT22;15148;48.972;12.794;2023-12-22T01:09:54;3.10;99.90
27759;DHT22;15148;48.972;12.794;2023-12-22T01:14:57;3.00;99.90
27759;DHT22;15148;48.972;12.794;2023-12-22T01:19:58;3.00;99.90
27759;DHT22;15148;48.972;12.794;2023-12-22T01:25:01;3.00;99.90
27759;DHT22;15148;48.972;12.794;2023-12-22T01:30:03;2.90;99.90
27759;DHT22;15148;48.972;12.794;2023-12-22T01:35:06;2.90;99.90
27759;DHT22;15148;48.972;12.794;2023-12-22T01:40:11;2.90;99.90
27759;DHT22;15148;48.972;12.794;2023-12-22T01:45:13;2.90;99.90
27759;DHT22;15148;48.972;12.794;2023-12-22T01:50:15;2.80;99.90
27759;DHT22;15148;48.972;12.794;2023-12-22T01:55:18;2.70;99.90
27759;DHT22;15148;48.972;12.794;2023-12-22T02:00:20;2.80;99.90
27759;DHT22;15148;48.972;12.794;2023-12-22T02:05:23;2.80;99.90
27759;DHT22;15148;48.972;12.794;2023-12-22T02:10:25;2.80;99.90
27759;DHT22;15148;48.972;12.794;2023-12-22T02:15:27;2.90;99.90
27759;DHT22;15148;48.972;12.794;2023-12-22T02:20:30;2.90;99.90
27759;DHT22;15148;48.972;12.794;2023-12-22T02:25:32;2.90;99.90
27759;DHT22;15148;48.972;12.794;2023-12-22T02:30:55;2.90;99.90
27759;DHT22;15148;48.972;12.794;2023-12-22T02:36:03;2.90;99.90
27759;DHT22;15148;48.972;12.794;2023-12-22T02:41:06;2.90;99.90
27759;DHT22;15148;48.972;12.794;2023-12-22T02:46:14;2.90;99.90
27759;DHT22;15148;48.972;12.794;2023-12-22T02:51:17;2.90;99.90
27759;DHT22;15148;48.972;12.794;2023-12-22T02:56:18;3.00;99.90
27759;DHT22;15148;48.972;12.794;2023-12-22T03:01:20;2.90;99.90
27759;DHT22;15148;48.972;12.794;2023-12-22T03:06:22;3.00;99.90
27759;DHT22;15148;48.972;12.794;2023-12-22T03:11:24;3.00;99.90
27759;DHT22;15148;48.972;12.794;2023-12-22T03:16:26;3.00;99.90
27759;DHT22;15148;48.972;12.794;2023-12-22T03:21:28;3.00;99.90
27759;DHT22;15148;48.972;12.794;2023-12-22T03:26:30;3.00;99.90
27759;DHT22;15148;48.972;12.794;2023-12-22T03:31:32;3.00;99.90
27759;DHT22;15148;48.972;12.794;2023-12-22T03:36:34;3.00;99.90
27759;DHT22;15148;48.972;12.794;2023-12-22T03:41:36;3.00;99.90
27759;DHT22;15148;48.972;12.794;2023-12-22T03:46:37;3.00;99.90
27759;DHT22;15148;48.972;12.794;2023-12-22T03:51:39;3.00;99.90
27759;DHT22;15148;48.972;12.794;2023-12-22T03:56:43;3.00;99.90
27759;DHT22;15148;48.972;12.794;2023-12-22T04:01:51;3.00;99.90
27759;DHT22;15148;48.972;12.794;2023-12-22T04:06:54;3.10;99.90
27759;DHT22;15148;48.972;12.794;2023-12-22T04:11:56;3.10;99.90
27759;DHT22;15148;48.972;12.794;2023-12-22T04:16:58;3.10;99.90
27759;DHT22;15148;48.972;12.794;2023-12-22T04:22:00;3.00;99.90
27759;DHT22;15148;48.972;12.794;2023-12-22T04:27:02;3.00;99.90
27759;DHT22;15148;48.972;12.794;2023-12-22T04:32:04;3.00;99.90
27759;DHT22;15148;48.972;12.794;2023-12-22T04:37:06;3.00;99.90
27759;DHT22;15148;48.972;12.794;2023-12-22T04:42:08;3.00;99.90
27759;DHT22;15148;48.972;12.794;2023-12-22T04:47:10;3.00;99.90
27759;DHT22;15148;48.972;12.794;2023-12-22T04:52:14;3.00;99.90
27759;DHT22;15148;48.972;12.794;2023-12-22T04:57:16;2.90;99.90
27759;DHT22;15148;48.972;12.794;2023-12-22T05:02:19;2.90;99.90
27759;DHT22;15148;48.972;12.794;2023-12-22T05:07:21;2.90;99.90
27759;DHT22;15148;48.972;12.794;2023-12-22T05:12:23;2.80;99.90
27759;DHT22;15148;48.972;12.794;2023-12-22T05:17:25;2.80;99.90
27759;DHT22;15148;48.972;12.794;2023-12-22T05:22:27;2.80;99.90
27759;DHT22;15148;48.972;12.794;2023-12-22T05:27:33;2.80;99.90
27759;DHT22;15148;48.972;12.794;2023-12-22T05:32:35;2.90;99.90
27759;DHT22;15148;48.972;12.794;2023-12-22T05:37:37;2.80;99.90
27759;DHT22;15148;48.972;12.794;2023-12-22T05:42:39;2.70;99.90
27759;DHT22;15148;48.972;12.794;2023-12-22T05:47:41;2.70;99.90
27759;DHT22;15148;48.972;12.794;2023-12-22T05:52:43;2.60;99.90
27759;DHT22;15148;48.972;12.794;2023-12-22T05:57:46;2.50;99.90
27759;DHT22;15148;48.972;12.794;2023-12-22T06:02:48;2.60;99.90
27759;DHT22;15148;48.972;12.794;2023-12-22T06:07:50;2.70;99.90
27759;DHT22;15148;48.972;12.794;2023-12-22T06:12:53;2.60;99.90
27759;DHT22;15148;48.972;12.794;2023-12-22T06:17:55;2.60;99.90
27759;DHT22;15148;48.972;12.794;2023-12-22T06:22:56;2.60;99.90
27759;DHT22;15148;48.972;12.794;2023-12-22T06:27:58;2.50;99.90
27759;DHT22;15148;48.972;12.794;2023-12-22T06:33:00;2.50;99.90
27759;DHT22;15148;48.972;12.794;2023-12-22T06:38:03;2.60;99.90
27759;DHT22;15148;48.972;12.794;2023-12-22T06:43:07;2.50;99.90
27759;DHT22;15148;48.972;12.794;2023-12-22T06:48:09;2.60;99.90
27759;DHT22;15148;48.972;12.794;2023-12-22T06:53:14;2.50;99.90
27759;DHT22;15148;48.972;12.794;2023-12-22T06:58:26;2.50;99.90
27759;DHT22;15148;48.972;12.794;2023-12-22T07:03:28;2.50;99.90
27759;DHT22;15148;48.972;12.794;2023-12-22T07:08:33;2.50;99.90
27759;DHT22;15148;48.972;12.794;2023-12-22T07:13:35;2.40;99.90
27759;DHT22;15148;48.972;12.794;2023-12-22T07:18:38;2.50;99.90
27759;DHT22;15148;48.972;12.794;2023-12-22T07:23:40;2.50;99.90
27759;DHT22;15148;48.972;12.794;2023-12-22T07:28:45;2.50;99.90
27759;DHT22;15148;48.972;12.794;2023-12-22T07:33:49;2.60;99.90
27759;DHT22;15148;48.972;12.794;2023-12-22T07:38:51;2.60;99.90
27759;DHT22;15148;48.972;12.794;2023-12-22T07:43:53;2.60;99.90
27759;DHT22;15148;48.972;12.794;2023-12-22T07:48:55;2.60;99.90
27759;DHT22;15148;48.972;12.794;2023-12-22T07:53:57;2.70;99.90
27759;DHT22;15148;48.972;12.794;2023-12-22T07:58:59;2.70;99.90
27759;DHT22;15148;48.972;12.794;2023-12-22T08:04:23;2.70;99.90
27759;DHT22;15148;48.972;12.794;2023-12-22T08:09:25;2.80;99.90
27759;DHT22;15148;48.972;12.794;2023-12-22T08:14:27;2.80;99.90
27759;DHT22;15148;48.972;12.794;2023-12-22T08:19:29;2.80;99.90
27759;DHT22;15148;48.972;12.794;2023-12-22T08:24:33;2.90;99.90
27759;DHT22;15148;48.972;12.794;2023-12-22T08:29:35;2.90;99.90
27759;DHT22;15148;48.972;12.794;2023-12-22T08:34:36;2.90;99.90
27759;DHT22;15148;48.972;12.794;2023-12-22T08:39:38;2.90;99.90
27759;DHT22;15148;48.972;12.794;2023-12-22T08:44:40;2.90;99.90
27759;DHT22;15148;48.972;12.794;2023-12-22T08:49:42;3.00;99.90
27759;DHT22;15148;48.972;12.794;2023-12-22T08:54:44;3.00;99.90
27759;DHT22;15148;48.972;12.794;2023-12-22T08:59:46;3.00;99.90
27759;DHT22;15148;48.972;12.794;2023-12-22T09:04:48;2.90;99.90
27759;DHT22;15148;48.972;12.794;2023-12-22T09:09:50;3.00;99.90
27759;DHT22;15148;48.972;12.794;2023-12-22T09:14:52;3.00;99.90
27759;DHT22;15148;48.972;12.794;2023-12-22T09:19:55;3.00;99.90
27759;DHT22;15148;48.972;12.794;2023-12-22T09:24:57;3.10;99.90
27759;DHT22;15148;48.972;12.794;2023-12-22T09:29:59;3.10;99.90
27759;DHT22;15148;48.972;12.794;2023-12-22T09:35:01;3.20;99.90
27759;DHT22;15148;48.972;12.794;2023-12-22T09:40:03;3.20;99.90
27759;DHT22;15148;48.972;12.794;2023-12-22T09:45:08;3.20;99.90
27759;DHT22;15148;48.972;12.794;2023-12-22T09:50:12;3.20;99.90
27759;DHT22;15148;48.972;12.794;2023-12-22T09:55:15;3.20;99.90
27759;DHT22;15148;48.972;12.794;2023-12-22T10:00:19;3.20;99.90
27759;DHT22;15148;48.972;12.794;2023-12-22T10:05:22;3.30;99.90
27759;DHT22;15148;48.972;12.794;2023-12-22T10:10:25;3.30;99.90
27759;DHT22;15148;48.972;12.794;2023-12-22T10:15:28;3.40;99.90
27759;DHT22;15148;48.972;12.794;2023-12-22T10:20:30;3.40;99.90
27759;DHT22;15148;48.972;12.794;2023-12-22T10:25:32;3.50;99.90
27759;DHT22;15148;48.972;12.794;2023-12-22T10:30:34;3.60;99.90
27759;DHT22;15148;48.972;12.794;2023-12-22T10:35:37;3.60;99.90
27759;DHT22;15148;48.972;12.794;2023-12-22T10:40:39;3.60;99.90
27759;DHT22;15148;48.972;12.794;2023-12-22T10:45:41;3.70;99.90
27759;DHT22;15148;48.972;12.794;2023-12-22T10:50:43;3.70;99.90
27759;DHT22;15148;48.972;12.794;2023-12-22T10:55:46;3.70;99.90
27759;DHT22;15148;48.972;12.794;2023-12-22T11:00:52;3.70;99.90
27759;DHT22;15148;48.972;12.794;2023-12-22T11:05:54;3.60;99.90
27759;DHT22;15148;48.972;12.794;2023-12-22T11:11:07;3.60;99.90
27759;DHT22;15148;48.972;12.794;2023-12-22T11:16:11;3.60;99.90
27759;DHT22;15148;48.972;12.794;2023-12-22T11:21:13;3.70;99.90
27759;DHT22;15148;48.972;12.794;2023-12-22T11:26:17;3.60;99.90
27759;DHT22;15148;48.972;12.794;2023-12-22T11:31:20;3.60;99.90
27759;DHT22;15148;48.972;12.794;2023-12-22T11:36:23;3.60;99.90
27759;DHT22;15148;48.972;12.794;2023-12-22T11:41:27;3.60;99.90
27759;DHT22;15148;48.972;12.794;2023-12-22T11:46:31;3.50;99.90
27759;DHT22;15148;48.972;12.794;2023-12-22T11:51:35;3.50;99.90
27759;DHT22;15148;48.972;12.794;2023-12-22T11:56:37;3.40;99.90
27759;DHT22;15148;48.972;12.794;2023-12-22T12:01:39;3.40;99.90
27759;DHT22;15148;48.972;12.794;2023-12-22T12:06:41;3.30;99.90
27759;DHT22;15148;48.972;12.794;2023-12-22T12:17:07;3.20;99.90
27759;DHT22;15148;48.972;12.794;2023-12-22T12:22:13;3.20;99.90
27759;DHT22;15148;48.972;12.794;2023-12-22T12:27:19;3.20;99.90
27759;DHT22;15148;48.972;12.794;2023-12-22T12:32:23;3.10;99.90
27759;DHT22;15148;48.972;12.794;2023-12-22T12:37:27;3.10;99.90
27759;DHT22;15148;48.972;12.794;2023-12-22T12:42:29;3.20;99.90
27759;DHT22;15148;48.972;12.794;2023-12-22T12:47:34;3.10;99.90
27759;DHT22;15148;48.972;12.794;2023-12-22T12:52:36;3.10;99.90
27759;DHT22;15148;48.972;12.794;2023-12-22T12:57:38;3.00;99.90
27759;DHT22;15148;48.972;12.794;2023-12-22T13:02:40;3.10;99.90
27759;DHT22;15148;48.972;12.794;2023-12-22T13:07:42;3.00;99.90
27759;DHT22;15148;48.972;12.794;2023-12-22T13:12:44;3.00;99.90
27759;DHT22;15148;48.972;12.794;2023-12-22T13:17:46;3.10;99.90
27759;DHT22;15148;48.972;12.794;2023-12-22T13:22:49;3.00;99.90
27759;DHT22;15148;48.972;12.794;2023-12-22T13:27:52;3.00;99.90
27759;DHT22;15148;48.972;12.794;2023-12-22T13:32:55;3.10;99.90
27759;DHT22;15148;48.972;12.794;2023-12-22T13:37:58;3.10;99.90
27759;DHT22;15148;48.972;12.794;2023-12-22T13:43:00;3.10;99.90
27759;DHT22;15148;48.972;12.794;2023-12-22T13:48:04;3.20;99.90
27759;DHT22;15148;48.972;12.794;2023-12-22T13:53:09;3.20;99.90
27759;DHT22;15148;48.972;12.794;2023-12-22T13:58:12;3.10;99.90
27759;DHT22;15148;48.972;12.794;2023-12-22T14:03:14;3.10;99.90
27759;DHT22;15148;48.972;12.794;2023-12-22T14:08:18;3.10;99.90
27759;DHT22;15148;48.972;12.794;2023-12-22T14:13:20;3.10;99.90
27759;DHT22;15148;48.972;12.794;2023-12-22T14:18:22;3.20;99.90
27759;DHT22;15148;48.972;12.794;2023-12-22T14:23:25;3.20;99.90
27759;DHT22;15148;48.972;12.794;2023-12-22T14:28:27;3.20;99.90
27759;DHT22;15148;48.972;12.794;2023-12-22T14:33:29;3.30;99.90
27759;DHT22;15148;48.972;12.794;2023-12-22T14:38:31;3.30;99.90
27759;DHT22;15148;48.972;12.794;2023-12-22T14:43:33;3.40;99.90
27759;DHT22;15148;48.972;12.794;2023-12-22T14:48:35;3.40;99.90
27759;DHT22;15148;48.972;12.794;2023-12-22T14:53:37;3.50;99.90
27759;DHT22;15148;48.972;12.794;2023-12-22T14:58:39;3.60;99.90
27759;DHT22;15148;48.972;12.794;2023-12-22T15:03:41;3.60;99.90
27759;DHT22;15148;48.972;12.794;2023-12-22T15:08:43;3.70;99.90
27759;DHT22;15148;48.972;12.794;2023-12-22T15:13:45;3.70;99.90
27759;DHT22;15148;48.972;12.794;2023-12-22T15:18:47;3.80;99.90
27759;DHT22;15148;48.972;12.794;2023-12-22T15:23:50;3.90;99.90
27759;DHT22;15148;48.972;12.794;2023-12-22T15:28:53;4.10;99.90
27759;DHT22;15148;48.972;12.794;2023-12-22T15:33:55;4.30;99.90
27759;DHT22;15148;48.972;12.794;2023-12-22T15:38:57;4.40;99.90
27759;DHT22;15148;48.972;12.794;2023-12-22T15:43:59;4.50;99.90
27759;DHT22;15148;48.972;12.794;2023-12-22T15:49:02;4.60;99.90
27759;DHT22;15148;48.972;12.794;2023-12-22T15:54:04;4.60;99.90
27759;DHT22;15148;48.972;12.794;2023-12-22T15:59:06;4.70;99.90
27759;DHT22;15148;48.972;12.794;2023-12-22T16:04:08;4.70;99.90
27759;DHT22;15148;48.972;12.794;2023-12-22T16:09:10;4.90;99.90
27759;DHT22;15148;48.972;12.794;2023-12-22T16:14:12;4.90;99.90
27759;DHT22;15148;48.972;12.794;2023-12-22T16:19:16;5.00;99.90
27759;DHT22;15148;48.972;12.794;2023-12-22T16:24:21;5.00;99.90
27759;DHT22;15148;48.972;12.794;2023-12-22T16:29:22;5.00;99.90
27759;DHT22;15148;48.972;12.794;2023-12-22T16:34:24;5.00;99.90
27759;DHT22;15148;48.972;12.794;2023-12-22T16:39:26;5.10;99.90
27759;DHT22;15148;48.972;12.794;2023-12-22T16:44:28;5.10;99.90
27759;DHT22;15148;48.972;12.794;2023-12-22T16:49:30;5.20;99.90
27759;DHT22;15148;48.972;12.794;2023-12-22T16:54:32;5.30;99.90
27759;DHT22;15148;48.972;12.794;2023-12-22T16:59:34;5.30;99.90
27759;DHT22;15148;48.972;12.794;2023-12-22T17:04:36;5.20;99.90
27759;DHT22;15148;48.972;12.794;2023-12-22T17:09:38;5.20;99.90
27759;DHT22;15148;48.972;12.794;2023-12-22T17:14:40;5.20;99.90
27759;DHT22;15148;48.972;12.794;2023-12-22T17:19:42;5.20;99.90
27759;DHT22;15148;48.972;12.794;2023-12-22T17:24:44;5.20;99.90
27759;DHT22;15148;48.972;12.794;2023-12-22T17:29:47;5.30;99.90
27759;DHT22;15148;48.972;12.794;2023-12-22T17:34:48;5.40;99.90
27759;DHT22;15148;48.972;12.794;2023-12-22T17:39:50;5.50;99.90
27759;DHT22;15148;48.972;12.794;2023-12-22T17:44:52;5.40;99.90
27759;DHT22;15148;48.972;12.794;2023-12-22T17:49:54;5.50;99.90
27759;DHT22;15148;48.972;12.794;2023-12-22T17:54:56;5.60;99.90
27759;DHT22;15148;48.972;12.794;2023-12-22T17:59:58;5.50;99.90
27759;DHT22;15148;48.972;12.794;2023-12-22T18:05:00;5.50;99.90
27759;DHT22;15148;48.972;12.794;2023-12-22T18:10:02;5.40;99.90
27759;DHT22;15148;48.972;12.794;2023-12-22T18:15:05;5.40;99.90
27759;DHT22;15148;48.972;12.794;2023-12-22T18:20:08;5.40;99.90
27759;DHT22;15148;48.972;12.794;2023-12-22T18:25:11;5.40;99.90
27759;DHT22;15148;48.972;12.794;2023-12-22T18:30:13;5.40;99.90
27759;DHT22;15148;48.972;12.794;2023-12-22T18:35:15;5.40;99.90
27759;DHT22;15148;48.972;12.794;2023-12-22T18:40:17;5.40;99.90
27759;DHT22;15148;48.972;12.794;2023-12-22T18:45:19;5.40;99.90
27759;DHT22;15148;48.972;12.794;2023-12-22T18:50:21;5.60;99.90
27759;DHT22;15148;48.972;12.794;2023-12-22T18:55:25;5.60;99.90
27759;DHT22;15148;48.972;12.794;2023-12-22T19:00:27;5.70;99.90
27759;DHT22;15148;48.972;12.794;2023-12-22T19:05:29;5.70;99.90
27759;DHT22;15148;48.972;12.794;2023-12-22T19:10:31;5.80;99.90
27759;DHT22;15148;48.972;12.794;2023-12-22T19:15:33;5.80;99.90
27759;DHT22;15148;48.972;12.794;2023-12-22T19:20:36;5.90;99.90
27759;DHT22;15148;48.972;12.794;2023-12-22T19:25:38;6.00;99.90
27759;DHT22;15148;48.972;12.794;2023-12-22T19:30:40;6.00;99.90
27759;DHT22;15148;48.972;12.794;2023-12-22T19:35:42;6.10;99.90
27759;DHT22;15148;48.972;12.794;2023-12-22T19:40:44;6.10;99.90
27759;DHT22;15148;48.972;12.794;2023-12-22T19:45:47;6.10;99.90
27759;DHT22;15148;48.972;12.794;2023-12-22T19:50:49;6.10;99.90
27759;DHT22;15148;48.972;12.794;2023-12-22T19:55:51;6.10;99.90
27759;DHT22;15148;48.972;12.794;2023-12-22T20:00:54;6.20;99.90
27759;DHT22;15148;48.972;12.794;2023-12-22T20:05:56;6.30;99.90
27759;DHT22;15148;48.972;12.794;2023-12-22T20:11:00;6.30;99.90
27759;DHT22;15148;48.972;12.794;2023-12-22T20:16:03;6.30;99.90
27759;DHT22;15148;48.972;12.794;2023-12-22T20:21:08;6.40;99.90
27759;DHT22;15148;48.972;12.794;2023-12-22T20:26:10;6.40;99.90
27759;DHT22;15148;48.972;12.794;2023-12-22T20:31:13;6.40;99.90
27759;DHT22;15148;48.972;12.794;2023-12-22T20:36:15;6.50;99.90
27759;DHT22;15148;48.972;12.794;2023-12-22T20:41:17;6.50;99.90
27759;DHT22;15148;48.972;12.794;2023-12-22T20:46:21;6.50;99.90
27759;DHT22;15148;48.972;12.794;2023-12-22T20:51:23;6.50;99.90
27759;DHT22;15148;48.972;12.794;2023-12-22T20:56:25;6.60;99.90
27759;DHT22;15148;48.972;12.794;2023-12-22T21:01:27;6.70;99.90
27759;DHT22;15148;48.972;12.794;2023-12-22T21:06:30;6.70;99.90
27759;DHT22;15148;48.972;12.794;2023-12-22T21:11:32;6.70;99.90
27759;DHT22;15148;48.972;12.794;2023-12-22T21:16:33;6.70;99.90
27759;DHT22;15148;48.972;12.794;2023-12-22T21:21:43;6.60;99.90
27759;DHT22;15148;48.972;12.794;2023-12-22T21:26:45;6.70;99.90
27759;DHT22;15148;48.972;12.794;2023-12-22T21:31:47;6.70;99.90
27759;DHT22;15148;48.972;12.794;2023-12-22T21:36:49;6.70;99.90
27759;DHT22;15148;48.972;12.794;2023-12-22T21:41:52;6.70;99.90
27759;DHT22;15148;48.972;12.794;2023-12-22T21:46:54;6.60;99.90
27759;DHT22;15148;48.972;12.794;2023-12-22T21:51:56;6.60;99.90
27759;DHT22;15148;48.972;12.794;2023-12-22T21:56:58;6.70;99.90
27759;DHT22;15148;48.972;12.794;2023-12-22T22:02:00;6.70;99.90
27759;DHT22;15148;48.972;12.794;2023-12-22T22:07:02;6.70;99.90
27759;DHT22;15148;48.972;12.794;2023-12-22T22:12:05;6.70;99.90
27759;DHT22;15148;48.972;12.794;2023-12-22T22:17:08;6.70;99.90
27759;DHT22;15148;48.972;12.794;2023-12-22T22:22:10;6.80;99.90
27759;DHT22;15148;48.972;12.794;2023-12-22T22:27:12;6.90;99.90
27759;DHT22;15148;48.972;12.794;2023-12-22T22:32:14;6.90;99.90
27759;DHT22;15148;48.972;12.794;2023-12-22T22:37:18;6.90;99.90
27759;DHT22;15148;48.972;12.794;2023-12-22T22:42:20;6.90;99.90
27759;DHT22;15148;48.972;12.794;2023-12-22T22:47:21;6.80;99.90
27759;DHT22;15148;48.972;12.794;2023-12-22T22:52:24;6.80;99.90
27759;DHT22;15148;48.972;12.794;2023-12-22T22:57:25;6.90;99.90
27759;DHT22;15148;48.972;12.794;2023-12-22T23:02:28;6.90;99.90
27759;DHT22;15148;48.972;12.794;2023-12-22T23:07:32;6.90;99.90
27759;DHT22;15148;48.972;12.794;2023-12-22T23:12:34;6.90;99.90
27759;DHT22;15148;48.972;12.794;2023-12-22T23:17:36;6.80;99.90
27759;DHT22;15148;48.972;12.794;2023-12-22T23:22:38;6.80;99.90
27759;DHT22;15148;48.972;12.794;2023-12-22T23:27:40;6.60;99.90
27759;DHT22;15148;48.972;12.794;2023-12-22T23:32:42;6.80;99.90
27759;DHT22;15148;48.972;12.794;2023-12-22T23:37:44;6.70;99.90
27759;DHT22;15148;48.972;12.794;2023-12-22T23:42:46;6.70;99.90
27759;DHT22;15148;48.972;12.794;2023-12-22T23:47:48;6.70;99.90
27759;DHT22;15148;48.972;12.794;2023-12-22T23:52:50;6.80;99.90
27759;DHT22;15148;48.972;12.794;2023-12-22T23:57:52;6.80;99.90
